Time;durP1;ratioP1;P1;durP2;ratioP2;P2;SDS_P1;SDS_P2;PMS_P1;PMS_P2;Temp;Humidity;BMP_temperature;BMP_pressure;BME280_temperature;BME280_humidity;BME280_pressure;Samples;Min_cycle;Max_cycle;Signal;HPM_P1;HPM_P2
2021/08/04 00:01:42;;;;;;;12.77;8.30;;;;;;;-140.05;100.00;61859.38;5029592;28;20197;-66
2021/08/04 00:04:10;;;;;;;19.57;8.73;;;;;;;-140.05;100.00;61859.38;5029344;28;20233;-66
2021/08/04 00:06:38;;;;;;;13.60;7.67;;;;;;;-140.05;100.00;61859.38;5029416;28;20196;-66
2021/08/04 00:09:06;;;;;;;11.80;7.30;;;;;;;-140.05;100.00;61859.38;5030384;28;20199;-66
2021/08/04 00:11:33;;;;;;;16.67;8.20;;;;;;;-140.05;100.00;61859.38;5016315;28;20189;-66
2021/08/04 00:14:01;;;;;;;13.13;7.53;;;;;;;-140.05;100.00;61859.38;5030332;28;20193;-65
2021/08/04 00:16:29;;;;;;;19.00;8.27;;;;;;;-140.05;100.00;61859.38;5016187;28;20190;-67
2021/08/04 00:18:56;;;;;;;10.70;7.00;;;;;;;-140.05;100.00;61859.38;5030353;28;20218;-64
2021/08/04 00:21:24;;;;;;;10.77;7.43;;;;;;;-140.05;100.00;61859.38;5016047;28;20209;-64
2021/08/04 00:23:52;;;;;;;15.17;7.37;;;;;;;-140.05;100.00;61859.38;5019112;28;20213;-64
2021/08/04 00:26:18;;;;;;;14.23;6.83;;;;;;;-140.05;100.00;61859.38;5030821;28;20699;-64
2021/08/04 00:28:46;;;;;;;15.23;7.07;;;;;;;-140.05;100.00;61859.38;5016332;28;20197;-64
2021/08/04 00:31:13;;;;;;;8.97;6.57;;;;;;;-140.05;100.00;61859.38;5030110;28;20207;-66
2021/08/04 00:33:40;;;;;;;14.53;7.07;;;;;;;-140.05;100.00;61859.38;5024910;28;20301;-65
2021/08/04 00:36:08;;;;;;;10.47;6.50;;;;;;;-140.05;100.00;61859.38;5019166;28;20284;-67
2021/08/04 00:38:35;;;;;;;11.33;6.80;;;;;;;-140.05;100.00;61859.38;5026748;28;20288;-65
2021/08/04 00:41:02;;;;;;;15.10;7.07;;;;;;;-140.05;100.00;61859.38;5026480;28;20283;-65
2021/08/04 00:43:29;;;;;;;13.87;7.33;;;;;;;-140.05;100.00;61859.38;5016848;28;20237;-64
2021/08/04 00:45:56;;;;;;;16.00;7.17;;;;;;;-140.05;100.00;61859.38;5024412;28;20205;-67
2021/08/04 00:48:24;;;;;;;10.67;7.30;;;;;;;-140.05;100.00;61859.38;5028502;28;20200;-67
2021/08/04 00:50:51;;;;;;;10.97;7.67;;;;;;;-140.05;100.00;61859.38;5026949;28;20706;-66
2021/08/04 00:53:27;;;;;;;12.23;7.20;;;;;;;-140.05;100.00;61859.38;5017278;28;20201;-64
2021/08/04 00:55:59;;;;;;;11.43;7.87;;;;;;;-140.05;100.00;61859.38;5027913;28;20216;-66
2021/08/04 00:58:33;;;;;;;11.83;7.70;;;;;;;-140.05;100.00;61859.38;5022570;28;20194;-66
2021/08/04 01:01:12;;;;;;;11.67;7.80;;;;;;;-140.05;100.00;61859.38;5022287;28;20193;-66
2021/08/04 01:03:45;;;;;;;12.00;7.27;;;;;;;-140.05;100.00;61859.38;5029710;28;20215;-65
2021/08/04 01:06:21;;;;;;;11.97;7.17;;;;;;;-140.05;100.00;61859.38;5013475;28;20259;-67
2021/08/04 01:08:55;;;;;;;15.33;7.73;;;;;;;-140.05;100.00;61859.38;5028519;28;20197;-66
2021/08/04 01:11:28;;;;;;;11.67;6.77;;;;;;;-140.05;100.00;61859.38;5014050;28;20201;-67
2021/08/04 01:13:59;;;;;;;13.13;7.20;;;;;;;-140.05;100.00;61859.38;5028408;28;20205;-68
2021/08/04 01:16:31;;;;;;;17.97;7.93;;;;;;;-140.05;100.00;61859.38;5027507;28;20251;-67
2021/08/04 01:18:58;;;;;;;15.47;7.20;;;;;;;-140.05;100.00;61859.38;5021241;28;20718;-66
2021/08/04 01:21:44;;;;;;;25.27;8.30;;;;;;;-140.05;100.00;61859.38;5033879;28;20203;-66
2021/08/04 01:24:23;;;;;;;15.47;7.50;;;;;;;-140.05;100.00;61859.38;5022520;28;20259;-65
2021/08/04 01:26:52;;;;;;;12.73;7.23;;;;;;;-140.05;100.00;61859.38;5015866;28;20228;-65
2021/08/04 01:29:22;;;;;;;11.13;7.30;;;;;;;-140.05;100.00;61859.38;5033179;28;20219;-65
2021/08/04 01:31:54;;;;;;;15.37;8.00;;;;;;;-140.05;100.00;61859.38;5031234;28;20315;-66
2021/08/04 01:34:22;;;;;;;14.13;7.80;;;;;;;-140.05;100.00;61859.38;5033034;28;20219;-65
2021/08/04 01:36:50;;;;;;;15.60;7.37;;;;;;;-140.05;100.00;61859.38;5030723;28;20237;-66
2021/08/04 01:39:20;;;;;;;11.87;7.50;;;;;;;-140.05;100.00;61859.38;5031525;28;20627;-66
2021/08/04 01:41:49;;;;;;;9.47;6.73;;;;;;;-140.05;100.00;61859.38;5017306;28;20205;-66
2021/08/04 01:44:17;;;;;;;14.87;7.97;;;;;;;-140.05;100.00;61859.38;5030686;28;20460;-66
2021/08/04 01:46:46;;;;;;;12.97;7.77;;;;;;;-140.05;100.00;61859.38;5018006;28;20292;-65
2021/08/04 01:49:14;;;;;;;12.73;7.13;;;;;;;-140.05;100.00;61859.38;5030862;28;20205;-65
2021/08/04 01:51:46;;;;;;;12.77;7.80;;;;;;;-140.05;100.00;61859.38;5030962;28;20201;-64
2021/08/04 01:54:13;;;;;;;12.87;8.10;;;;;;;-140.05;100.00;61859.38;5017080;28;20198;-65
2021/08/04 01:56:40;;;;;;;9.77;8.40;;;;;;;-140.05;100.00;61859.38;5031543;28;20192;-65
2021/08/04 01:59:07;;;;;;;13.70;8.83;;;;;;;-140.05;100.00;61859.38;5018856;28;20656;-64
2021/08/04 02:01:38;;;;;;;15.00;8.07;;;;;;;-140.05;100.00;61859.38;5016228;28;20228;-65
2021/08/04 02:04:07;;;;;;;12.57;7.70;;;;;;;-140.05;100.00;61859.38;5031001;28;20232;-66
2021/08/04 02:06:52;;;;;;;15.37;8.47;;;;;;;-140.05;100.00;61859.38;5017028;28;20690;-65
2021/08/04 02:09:41;;;;;;;17.33;9.23;;;;;;;-140.05;100.00;61859.38;5032040;28;20200;-65
2021/08/04 02:12:10;;;;;;;11.87;7.97;;;;;;;-140.05;100.00;61859.38;5019823;28;20201;-64
2021/08/04 02:14:41;;;;;;;14.73;8.00;;;;;;;-140.05;100.00;61859.38;5030219;28;20753;-67
2021/08/04 02:17:50;;;;;;;13.37;8.17;;;;;;;-140.05;100.00;61859.38;5023526;28;20714;-65
2021/08/04 02:20:40;;;;;;;14.17;8.47;;;;;;;-140.05;100.00;61859.38;5016468;28;20227;-66
2021/08/04 02:23:17;;;;;;;13.80;8.33;;;;;;;-140.05;100.00;61859.38;5016812;28;20672;-66
2021/08/04 02:25:52;;;;;;;18.17;8.53;;;;;;;-140.05;100.00;61859.38;5031401;28;20705;-66
2021/08/04 02:28:22;;;;;;;13.83;8.40;;;;;;;-140.05;100.00;61859.38;5016786;28;20201;-68
2021/08/04 02:30:52;;;;;;;15.13;8.37;;;;;;;-140.05;100.00;61859.38;5031890;28;20193;-65
2021/08/04 02:33:21;;;;;;;11.87;7.60;;;;;;;-140.05;100.00;61859.38;5014004;28;20227;-66
2021/08/04 02:35:49;;;;;;;16.17;8.43;;;;;;;-140.05;100.00;61859.38;5023101;28;20194;-67
2021/08/04 02:38:16;;;;;;;13.40;7.77;;;;;;;-140.05;100.00;61859.38;5024190;28;20681;-67
2021/08/04 02:40:44;;;;;;;12.20;7.20;;;;;;;-140.05;100.00;61859.38;5025380;28;20198;-67
2021/08/04 02:43:12;;;;;;;13.20;8.23;;;;;;;-140.05;100.00;61859.38;5011687;28;20247;-67
2021/08/04 02:45:41;;;;;;;14.93;7.80;;;;;;;-140.05;100.00;61859.38;5026239;28;20643;-66
2021/08/04 02:48:10;;;;;;;12.17;8.13;;;;;;;-140.05;100.00;61859.38;5023586;28;20193;-65
2021/08/04 02:50:43;;;;;;;14.17;8.00;;;;;;;-140.05;100.00;61859.38;5030728;28;20209;-65
2021/08/04 02:53:14;;;;;;;12.53;8.30;;;;;;;-140.05;100.00;61859.38;5031734;28;20204;-65
2021/08/04 02:55:42;;;;;;;15.57;8.17;;;;;;;-140.05;100.00;61859.38;5030044;28;20260;-65
2021/08/04 02:58:12;;;;;;;15.07;8.63;;;;;;;-140.05;100.00;61859.38;5031664;28;20197;-66
2021/08/04 03:00:40;;;;;;;14.00;8.43;;;;;;;-140.05;100.00;61859.38;5017815;28;20289;-65
2021/08/04 03:03:07;;;;;;;16.13;8.37;;;;;;;-140.05;100.00;61859.38;5028253;28;20263;-66
2021/08/04 03:05:35;;;;;;;13.67;8.60;;;;;;;-140.05;100.00;61859.38;5019534;28;20225;-67
2021/08/04 03:08:02;;;;;;;14.70;8.10;;;;;;;-140.05;100.00;61859.38;5011501;28;20578;-67
2021/08/04 03:10:29;;;;;;;19.60;8.13;;;;;;;-140.05;100.00;61859.38;5011288;28;20189;-68
2021/08/04 03:12:56;;;;;;;13.90;8.73;;;;;;;-140.05;100.00;61859.38;5024991;28;20280;-67
2021/08/04 03:15:23;;;;;;;17.70;8.40;;;;;;;-140.05;100.00;61859.38;5018304;28;20615;-67
2021/08/04 03:17:50;;;;;;;10.93;8.30;;;;;;;-140.05;100.00;61859.38;5030156;28;20201;-66
2021/08/04 03:20:17;;;;;;;12.93;7.90;;;;;;;-140.05;100.00;61859.38;5029550;28;20199;-66
2021/08/04 03:22:48;;;;;;;16.80;8.10;;;;;;;-140.05;100.00;61859.38;5019703;28;20300;-67
2021/08/04 03:25:18;;;;;;;13.33;8.10;;;;;;;-140.05;100.00;61859.38;5030055;28;20240;-67
2021/08/04 03:27:45;;;;;;;17.20;8.60;;;;;;;-140.05;100.00;61859.38;5031196;28;20204;-68
2021/08/04 03:30:14;;;;;;;12.43;8.33;;;;;;;-140.05;100.00;61859.38;5030251;28;20715;-67
2021/08/04 03:32:41;;;;;;;13.53;10.03;;;;;;;-140.05;100.00;61859.38;5021155;28;20198;-67
2021/08/04 03:35:11;;;;;;;17.37;9.20;;;;;;;-140.05;100.00;61859.38;5024264;28;20258;-67
2021/08/04 03:37:38;;;;;;;14.33;7.90;;;;;;;-140.05;100.00;61859.38;5010951;28;20204;-67
2021/08/04 03:40:05;;;;;;;12.33;7.73;;;;;;;-140.05;100.00;61859.38;5009508;28;20208;-67
2021/08/04 03:42:32;;;;;;;19.03;8.57;;;;;;;-140.05;100.00;61859.38;5010874;28;20227;-67
2021/08/04 03:44:59;;;;;;;17.30;8.93;;;;;;;-140.05;100.00;61859.38;5022900;28;20722;-66
2021/08/04 03:47:26;;;;;;;19.40;9.33;;;;;;;-140.05;100.00;61859.38;5026412;28;20295;-65
2021/08/04 03:49:53;;;;;;;18.30;9.67;;;;;;;-140.05;100.00;61859.38;5029507;28;20193;-68
2021/08/04 03:52:20;;;;;;;18.17;9.20;;;;;;;-140.05;100.00;61859.38;5030020;28;20199;-66
2021/08/04 03:54:47;;;;;;;15.93;9.43;;;;;;;-140.05;100.00;61859.38;5031354;28;20205;-68
2021/08/04 03:57:19;;;;;;;14.47;9.37;;;;;;;-140.05;100.00;61859.38;5031886;28;20193;-67
2021/08/04 03:59:46;;;;;;;14.90;8.87;;;;;;;-140.05;100.00;61859.38;5029656;28;20201;-68
2021/08/04 04:02:13;;;;;;;21.90;10.57;;;;;;;-140.05;100.00;61859.38;5018690;28;20936;-67
2021/08/04 04:04:40;;;;;;;15.30;10.73;;;;;;;-140.05;100.00;61859.38;5030274;28;20228;-66
2021/08/04 04:07:07;;;;;;;15.03;10.90;;;;;;;-140.05;100.00;61859.38;5030492;28;20284;-66
2021/08/04 04:09:34;;;;;;;20.60;11.67;;;;;;;-140.05;100.00;61859.38;5030153;28;20601;-66
2021/08/04 04:12:02;;;;;;;19.80;10.90;;;;;;;-140.05;100.00;61859.38;5034703;28;20291;-66
2021/08/04 04:14:29;;;;;;;19.40;10.43;;;;;;;-140.05;100.00;61859.38;5030016;28;20697;-67
2021/08/04 04:16:56;;;;;;;22.23;10.90;;;;;;;-140.05;100.00;61859.38;5030015;28;20208;-67
2021/08/04 04:19:23;;;;;;;18.70;9.33;;;;;;;-140.05;100.00;61859.38;5030242;28;20255;-66
2021/08/04 04:21:50;;;;;;;20.40;10.00;;;;;;;-140.05;100.00;61859.38;5029464;28;20204;-66
2021/08/04 04:24:17;;;;;;;21.37;9.47;;;;;;;-140.05;100.00;61859.38;5030075;28;20571;-66
2021/08/04 04:26:44;;;;;;;16.97;9.33;;;;;;;-140.05;100.00;61859.38;5029874;28;20209;-67
2021/08/04 04:29:11;;;;;;;17.67;8.93;;;;;;;-140.05;100.00;61859.38;5032232;28;20650;-66
2021/08/04 04:31:38;;;;;;;14.67;8.57;;;;;;;-140.05;100.00;61859.38;5033189;28;20197;-66
2021/08/04 04:34:05;;;;;;;20.20;8.70;;;;;;;-140.05;100.00;61859.38;5031085;28;20204;-68
2021/08/04 04:36:33;;;;;;;15.30;8.73;;;;;;;-140.05;100.00;61859.38;5029819;28;20224;-69
2021/08/04 04:39:00;;;;;;;26.93;9.13;;;;;;;-140.05;100.00;61859.38;5020403;28;20197;-69
2021/08/04 04:41:28;;;;;;;19.33;9.20;;;;;;;-140.05;100.00;61859.38;5021560;28;20248;-66
2021/08/04 04:43:55;;;;;;;14.00;8.00;;;;;;;-140.05;100.00;61859.38;5029464;28;20730;-68
2021/08/04 04:46:22;;;;;;;17.27;8.77;;;;;;;-140.05;100.00;61859.38;5030119;28;20219;-67
2021/08/04 04:48:51;;;;;;;18.83;8.83;;;;;;;-140.05;100.00;61859.38;5030454;28;20220;-69
2021/08/04 04:51:18;;;;;;;11.43;8.43;;;;;;;-140.05;100.00;61859.38;5031319;28;20204;-68
2021/08/04 04:53:45;;;;;;;18.70;8.90;;;;;;;-140.05;100.00;61859.38;5023176;28;20594;-67
2021/08/04 04:56:12;;;;;;;17.37;8.80;;;;;;;-140.05;100.00;61859.38;5031080;28;20291;-68
2021/08/04 04:58:39;;;;;;;18.97;8.73;;;;;;;-140.05;100.00;61859.38;5034380;28;20197;-72
2021/08/04 05:01:06;;;;;;;22.23;9.00;;;;;;;-140.05;100.00;61859.38;5032003;28;20212;-67
2021/08/04 05:03:33;;;;;;;25.63;20.17;;;;;;;-140.05;100.00;61859.38;5013807;28;20244;-67
2021/08/04 05:06:00;;;;;;;25.90;17.57;;;;;;;-140.05;100.00;61859.38;5027537;28;20264;-69
2021/08/04 05:08:27;;;;;;;18.23;9.63;;;;;;;-140.05;100.00;61859.38;5028165;28;20221;-66
2021/08/04 05:10:54;;;;;;;19.47;8.93;;;;;;;-140.05;100.00;61859.38;5025832;28;20675;-67
2021/08/04 05:13:21;;;;;;;16.33;10.70;;;;;;;-140.05;100.00;61859.38;5033715;28;20578;-65
2021/08/04 05:15:48;;;;;;;15.27;9.50;;;;;;;-140.05;100.00;61859.38;5033849;28;20201;-67
2021/08/04 05:18:15;;;;;;;16.23;9.37;;;;;;;-140.05;100.00;61859.38;5030346;28;20300;-68
2021/08/04 05:20:42;;;;;;;16.83;9.33;;;;;;;-140.05;100.00;61859.38;5022545;28;20956;-68
2021/08/04 05:23:09;;;;;;;18.10;9.17;;;;;;;-140.05;100.00;61859.38;5018133;28;20200;-67
2021/08/04 05:25:37;;;;;;;21.37;9.33;;;;;;;-140.05;100.00;61859.38;5020747;28;20232;-65
2021/08/04 05:28:07;;;;;;;39.13;30.37;;;;;;;-140.05;100.00;61859.38;5033574;28;20681;-66
2021/08/04 05:30:33;;;;;;;22.83;13.70;;;;;;;-140.05;100.00;61859.38;5019998;28;20189;-65
2021/08/04 05:33:00;;;;;;;19.67;13.60;;;;;;;-140.05;100.00;61859.38;5021349;28;20300;-65
2021/08/04 05:35:27;;;;;;;13.53;9.90;;;;;;;-140.05;100.00;61859.38;5018767;28;20201;-66
2021/08/04 05:37:55;;;;;;;17.50;12.73;;;;;;;-140.05;100.00;61859.38;5032999;28;20253;-67
2021/08/04 05:40:22;;;;;;;13.63;10.50;;;;;;;-140.05;100.00;61859.38;5029998;28;20192;-68
2021/08/04 05:42:48;;;;;;;18.77;13.87;;;;;;;-140.05;100.00;61859.38;5020943;28;20237;-68
2021/08/04 05:45:15;;;;;;;19.77;12.00;;;;;;;-140.05;100.00;61859.38;5027210;28;20217;-68
2021/08/04 05:47:43;;;;;;;20.70;10.57;;;;;;;-140.05;100.00;61859.38;5032562;28;20552;-69
2021/08/04 05:50:10;;;;;;;26.00;16.40;;;;;;;-140.05;100.00;61859.38;5032310;28;20243;-69
2021/08/04 05:52:37;;;;;;;19.07;10.57;;;;;;;-140.05;100.00;61859.38;5033137;28;21005;-69
2021/08/04 05:55:05;;;;;;;18.93;9.70;;;;;;;-140.05;100.00;61859.38;5032577;28;20255;-67
2021/08/04 05:57:34;;;;;;;18.40;9.57;;;;;;;-140.05;100.00;61859.38;5019175;28;20237;-68
2021/08/04 06:00:01;;;;;;;17.60;9.23;;;;;;;-140.05;100.00;61859.38;5032319;28;20204;-69
2021/08/04 06:02:33;;;;;;;21.57;9.10;;;;;;;-140.05;100.00;61859.38;5033004;28;20248;-68
2021/08/04 06:05:00;;;;;;;20.87;8.70;;;;;;;-140.05;100.00;61859.38;5026866;28;20214;-69
2021/08/04 06:07:27;;;;;;;17.30;8.87;;;;;;;-140.05;100.00;61859.38;5024297;28;20208;-69
2021/08/04 06:09:54;;;;;;;20.23;9.77;;;;;;;-140.05;100.00;61859.38;5032275;28;20215;-68
2021/08/04 06:12:22;;;;;;;14.37;9.33;;;;;;;-140.05;100.00;61859.38;5022191;28;20699;-68
2021/08/04 06:14:49;;;;;;;18.00;10.20;;;;;;;-140.05;100.00;61859.38;5025399;28;20667;-69
2021/08/04 06:17:16;;;;;;;16.33;8.93;;;;;;;-140.05;100.00;61859.38;5022003;28;20197;-69
2021/08/04 06:19:42;;;;;;;13.43;8.30;;;;;;;-140.05;100.00;61859.38;5032316;28;20288;-70
2021/08/04 06:22:09;;;;;;;19.47;9.07;;;;;;;-140.05;100.00;61859.38;5019488;28;20204;-68
2021/08/04 06:24:37;;;;;;;16.90;9.03;;;;;;;-140.05;100.00;61859.38;5031880;28;20224;-69
2021/08/04 06:27:04;;;;;;;18.17;8.53;;;;;;;-140.05;100.00;61859.38;5031838;28;20222;-69
2021/08/04 06:29:31;;;;;;;17.37;8.70;;;;;;;-140.05;100.00;61859.38;5032282;28;20193;-69
2021/08/04 06:31:58;;;;;;;17.57;9.80;;;;;;;-140.05;100.00;61859.38;5017631;28;20208;-69
2021/08/04 06:34:25;;;;;;;19.63;8.67;;;;;;;-140.05;100.00;61859.38;5032046;28;20602;-69
2021/08/04 06:36:52;;;;;;;33.37;8.97;;;;;;;-140.05;100.00;61859.38;5032179;28;20200;-68
2021/08/04 06:39:19;;;;;;;16.97;8.20;;;;;;;-140.05;100.00;61859.38;5024186;28;20567;-69
2021/08/04 06:42:01;;;;;;;14.50;7.37;;;;;;;-140.05;100.00;61859.38;5026359;28;20621;-68
2021/08/04 06:44:28;;;;;;;18.33;7.97;;;;;;;-140.05;100.00;61859.38;5031337;28;20288;-67
2021/08/04 06:46:59;;;;;;;18.53;7.50;;;;;;;-140.05;100.00;61859.38;5030974;28;20726;-68
2021/08/04 06:49:26;;;;;;;15.20;8.17;;;;;;;-140.05;100.00;61859.38;5031925;28;20197;-67
2021/08/04 06:51:53;;;;;;;16.13;7.77;;;;;;;-140.05;100.00;61859.38;5021868;28;20695;-67
2021/08/04 06:54:20;;;;;;;17.97;7.87;;;;;;;-140.05;100.00;61859.38;5025232;28;20194;-68
2021/08/04 06:56:47;;;;;;;15.43;7.57;;;;;;;-140.05;100.00;61859.38;5019501;28;20193;-68
2021/08/04 06:59:14;;;;;;;15.70;7.33;;;;;;;-140.05;100.00;61859.38;5031484;28;20211;-68
2021/08/04 07:01:41;;;;;;;14.20;7.40;;;;;;;-140.05;100.00;61859.38;5026483;28;20204;-68
2021/08/04 07:04:08;;;;;;;15.93;6.90;;;;;;;-140.05;100.00;61859.38;5011389;28;20201;-70
2021/08/04 07:06:35;;;;;;;16.30;6.50;;;;;;;-140.05;100.00;61859.38;5025188;28;20214;-67
2021/08/04 07:09:02;;;;;;;13.13;7.10;;;;;;;-140.05;100.00;61859.38;5022751;28;20208;-69
2021/08/04 07:11:29;;;;;;;14.20;7.00;;;;;;;-140.05;100.00;61859.38;5031085;28;20197;-68
2021/08/04 07:14:00;;;;;;;13.03;7.30;;;;;;;-140.05;100.00;61859.38;5021563;28;20206;-68
2021/08/04 07:16:27;;;;;;;12.60;6.87;;;;;;;-140.05;100.00;61859.38;5026408;28;20197;-69
2021/08/04 07:18:54;;;;;;;17.47;7.20;;;;;;;-140.05;100.00;61859.38;5023230;28;20284;-67
2021/08/04 07:21:21;;;;;;;16.80;7.47;;;;;;;-140.05;100.00;61859.38;5024926;28;20193;-70
2021/08/04 07:23:48;;;;;;;13.60;7.17;;;;;;;-140.05;100.00;61859.38;5024575;28;20839;-67
2021/08/04 07:26:14;;;;;;;10.53;7.57;;;;;;;-140.05;100.00;61859.38;5023120;28;20221;-70
2021/08/04 07:28:42;;;;;;;12.00;6.77;;;;;;;-140.05;100.00;61859.38;5026438;28;20202;-69
2021/08/04 07:31:09;;;;;;;13.73;7.70;;;;;;;-140.05;100.00;61859.38;5021467;28;20199;-68
2021/08/04 07:33:36;;;;;;;12.97;7.33;;;;;;;-140.05;100.00;61859.38;5030986;28;20695;-67
2021/08/04 07:36:04;;;;;;;14.50;7.00;;;;;;;-140.05;100.00;61859.38;5021728;28;20229;-67
2021/08/04 07:38:31;;;;;;;17.03;7.37;;;;;;;-140.05;100.00;61859.38;5026557;28;20575;-67
2021/08/04 07:40:59;;;;;;;11.63;6.47;;;;;;;-140.05;100.00;61859.38;5030659;28;20292;-69
2021/08/04 07:43:26;;;;;;;13.67;6.83;;;;;;;-140.05;100.00;61859.38;5030919;28;20233;-68
2021/08/04 07:45:53;;;;;;;14.13;6.83;;;;;;;-140.05;100.00;61859.38;5017853;28;20266;-68
2021/08/04 07:48:20;;;;;;;13.17;6.90;;;;;;;-140.05;100.00;61859.38;5030744;28;20285;-67
2021/08/04 07:50:47;;;;;;;13.27;7.00;;;;;;;-140.05;100.00;61859.38;5029174;28;20205;-68
2021/08/04 07:53:14;;;;;;;18.10;7.10;;;;;;;-140.05;100.00;61859.38;5017678;28;20193;-68
2021/08/04 07:55:41;;;;;;;18.10;6.97;;;;;;;-140.05;100.00;61859.38;5016203;28;20651;-67
2021/08/04 07:58:08;;;;;;;13.63;6.43;;;;;;;-140.05;100.00;61859.38;5029314;28;20200;-67
2021/08/04 08:00:35;;;;;;;16.23;5.97;;;;;;;-140.05;100.00;61859.38;5029750;28;20213;-69
2021/08/04 08:03:02;;;;;;;13.47;6.60;;;;;;;-140.05;100.00;61859.38;5030313;28;20197;-69
2021/08/04 08:05:29;;;;;;;17.10;6.47;;;;;;;-140.05;100.00;61859.38;5029851;28;20201;-69
2021/08/04 08:08:03;;;;;;;18.53;6.27;;;;;;;-140.05;100.00;61859.38;5030309;28;20189;-68
2021/08/04 08:10:36;;;;;;;12.50;6.60;;;;;;;-140.05;100.00;61859.38;5030430;28;20193;-69
2021/08/04 08:13:04;;;;;;;11.47;6.17;;;;;;;-140.05;100.00;61859.38;5029819;28;20197;-67
2021/08/04 08:15:31;;;;;;;17.47;7.00;;;;;;;-140.05;100.00;61859.38;5030004;28;20182;-68
2021/08/04 08:17:58;;;;;;;23.10;6.93;;;;;;;-140.05;100.00;61859.38;5030251;28;20208;-69
2021/08/04 08:20:27;;;;;;;15.63;6.73;;;;;;;-140.05;100.00;61859.38;5029664;28;20193;-70
2021/08/04 08:22:53;;;;;;;10.43;6.27;;;;;;;-140.05;100.00;61859.38;5030333;28;20207;-69
2021/08/04 08:25:22;;;;;;;15.37;6.87;;;;;;;-140.05;100.00;61859.38;5028716;28;20266;-68
2021/08/04 08:27:48;;;;;;;14.70;6.00;;;;;;;-140.05;100.00;61859.38;5030251;28;20193;-67
2021/08/04 08:30:15;;;;;;;16.13;6.20;;;;;;;-140.05;100.00;61859.38;5029637;28;20201;-68
2021/08/04 08:32:48;;;;;;;16.30;6.53;;;;;;;-140.05;100.00;61859.38;5030224;28;20208;-69
2021/08/04 08:35:16;;;;;;;19.80;6.40;;;;;;;-140.05;100.00;61859.38;5029074;28;20197;-66
2021/08/04 08:37:45;;;;;;;16.67;6.10;;;;;;;-140.05;100.00;61859.38;5030206;28;20197;-68
2021/08/04 08:40:15;;;;;;;19.43;6.43;;;;;;;-140.05;100.00;61859.38;5029246;28;20193;-67
2021/08/04 08:42:44;;;;;;;14.93;5.87;;;;;;;-140.05;100.00;61859.38;5030133;28;20323;-69
2021/08/04 08:45:12;;;;;;;20.90;6.13;;;;;;;-140.05;100.00;61859.38;5029242;28;20243;-68
2021/08/04 08:47:43;;;;;;;24.90;6.20;;;;;;;-140.05;100.00;61859.38;5029702;28;20216;-68
2021/08/04 08:50:18;;;;;;;17.77;5.73;;;;;;;-140.05;100.00;61859.38;5029417;28;20258;-67
2021/08/04 08:52:48;;;;;;;15.20;6.00;;;;;;;-140.05;100.00;61859.38;5015928;28;20206;-67
2021/08/04 08:55:15;;;;;;;18.33;5.40;;;;;;;-140.05;100.00;61859.38;5029801;28;20284;-67
2021/08/04 08:57:42;;;;;;;18.20;5.50;;;;;;;-140.05;100.00;61859.38;5029894;28;20193;-67
2021/08/04 09:00:11;;;;;;;17.63;5.97;;;;;;;-140.05;100.00;61859.38;5029236;28;20291;-68
2021/08/04 09:02:42;;;;;;;16.77;5.13;;;;;;;-140.05;100.00;61859.38;5030408;28;20209;-68
2021/08/04 09:05:12;;;;;;;17.90;6.27;;;;;;;-140.05;100.00;61859.38;5016369;28;20193;-69
2021/08/04 09:07:41;;;;;;;14.87;6.13;;;;;;;-140.05;100.00;61859.38;5017195;28;20221;-69
2021/08/04 09:10:33;;;;;;;18.70;5.63;;;;;;;-140.05;100.00;61859.38;5030716;28;20280;-68
2021/08/04 09:13:05;;;;;;;14.20;5.03;;;;;;;-140.05;100.00;61859.38;5031400;28;20631;-66
2021/08/04 09:15:34;;;;;;;15.87;5.63;;;;;;;-140.05;100.00;61859.38;5021412;28;20201;-70
2021/08/04 09:18:10;;;;;;;13.30;4.93;;;;;;;-140.05;100.00;61859.38;5024895;28;20208;-68
2021/08/04 09:20:44;;;;;;;15.30;5.20;;;;;;;-140.05;100.00;61859.38;5029449;28;20593;-68
2021/08/04 09:23:16;;;;;;;17.27;5.83;;;;;;;-140.05;100.00;61859.38;5029500;28;20189;-68
2021/08/04 09:26:09;;;;;;;18.70;5.60;;;;;;;-140.05;100.00;61859.38;5029234;28;20296;-67
2021/08/04 09:28:59;;;;;;;19.77;5.37;;;;;;;-140.05;100.00;61859.38;5029602;28;20201;-67
2021/08/04 09:31:41;;;;;;;15.50;5.50;;;;;;;-140.05;100.00;61859.38;5029290;28;20202;-68
2021/08/04 09:34:40;;;;;;;16.10;5.20;;;;;;;-140.05;100.00;61859.38;5029763;28;20197;-69
2021/08/04 09:37:12;;;;;;;17.47;6.00;;;;;;;-140.05;100.00;61859.38;5031645;28;20216;-68
2021/08/04 09:39:41;;;;;;;17.30;6.07;;;;;;;-140.05;100.00;61859.38;5033452;28;20193;-68
2021/08/04 09:42:10;;;;;;;16.17;5.20;;;;;;;-140.05;100.00;61859.38;5029181;28;20201;-68
2021/08/04 09:44:52;;;;;;;18.50;5.63;;;;;;;-140.05;100.00;61859.38;5022722;28;20201;-70
2021/08/04 09:47:19;;;;;;;16.07;5.93;;;;;;;-140.05;100.00;61859.38;5032396;28;20264;-68
2021/08/04 09:50:07;;;;;;;19.10;5.47;;;;;;;-140.05;100.00;61859.38;5032621;28;20620;-68
2021/08/04 09:52:35;;;;;;;14.77;5.50;;;;;;;-140.05;100.00;61859.38;5018840;28;20206;-67
2021/08/04 09:55:16;;;;;;;23.83;6.10;;;;;;;-140.05;100.00;61859.38;5032088;28;20197;-69
2021/08/04 09:57:48;;;;;;;13.80;5.80;;;;;;;-140.05;100.00;61859.38;5032681;28;20272;-67
2021/08/04 10:00:21;;;;;;;14.13;5.80;;;;;;;-140.05;100.00;61859.38;5031981;28;20200;-67
2021/08/04 10:02:48;;;;;;;13.50;4.70;;;;;;;-140.05;100.00;61859.38;5032673;28;20193;-68
2021/08/04 10:05:19;;;;;;;17.63;5.40;;;;;;;-140.05;100.00;61859.38;5031851;28;20247;-67
2021/08/04 10:08:00;;;;;;;18.07;5.20;;;;;;;-140.05;100.00;61859.38;5018660;28;20316;-67
2021/08/04 10:10:30;;;;;;;16.97;5.60;;;;;;;-140.05;100.00;61859.38;5020961;28;20558;-67
2021/08/04 10:12:59;;;;;;;16.60;5.50;;;;;;;-140.05;100.00;61859.38;5033099;28;20686;-69
2021/08/04 10:15:27;;;;;;;17.23;5.90;;;;;;;-140.05;100.00;61859.38;5021301;28;20208;-66
2021/08/04 10:17:55;;;;;;;13.67;5.47;;;;;;;-140.05;100.00;61859.38;5033137;28;20193;-68
2021/08/04 10:20:24;;;;;;;15.90;5.40;;;;;;;-140.05;100.00;61859.38;5025049;28;20622;-67
2021/08/04 10:22:53;;;;;;;15.40;5.90;;;;;;;-140.05;100.00;61859.38;5012646;28;20204;-67
2021/08/04 10:25:21;;;;;;;15.40;6.03;;;;;;;-140.05;100.00;61859.38;5020019;28;20193;-67
2021/08/04 10:27:48;;;;;;;16.30;5.30;;;;;;;-140.05;100.00;61859.38;5035648;28;20224;-66
2021/08/04 10:30:16;;;;;;;17.60;6.33;;;;;;;-140.05;100.00;61859.38;5035617;28;20190;-68
2021/08/04 10:32:44;;;;;;;16.70;6.00;;;;;;;-140.05;100.00;61859.38;5032505;28;20251;-68
2021/08/04 10:35:16;;;;;;;14.80;6.13;;;;;;;-140.05;100.00;61859.38;5031851;28;20205;-68
2021/08/04 10:37:44;;;;;;;13.53;5.33;;;;;;;-140.05;100.00;61859.38;5032936;28;20247;-68
2021/08/04 10:40:12;;;;;;;16.80;5.77;;;;;;;-140.05;100.00;61859.38;5030307;28;20205;-67
2021/08/04 10:42:44;;;;;;;17.97;6.07;;;;;;;-140.05;100.00;61859.38;5011943;28;20317;-66
2021/08/04 10:45:23;;;;;;;17.83;6.40;;;;;;;-140.05;100.00;61859.38;5011422;28;20208;-70
2021/08/04 10:47:51;;;;;;;16.17;5.97;;;;;;;-140.05;100.00;61859.38;5032048;28;20317;-69
2021/08/04 10:50:19;;;;;;;15.80;6.07;;;;;;;-140.05;100.00;61859.38;5031004;28;20216;-69
2021/08/04 10:52:58;;;;;;;13.63;5.43;;;;;;;-140.05;100.00;61859.38;5028471;28;20663;-68
2021/08/04 10:55:53;;;;;;;16.97;5.93;;;;;;;-140.05;100.00;61859.38;5021828;28;20205;-69
2021/08/04 10:58:20;;;;;;;17.90;5.80;;;;;;;-140.05;100.00;61859.38;5018896;28;20193;-67
2021/08/04 11:00:47;;;;;;;12.80;5.33;;;;;;;-140.05;100.00;61859.38;5031240;28;20201;-68
2021/08/04 11:03:29;;;;;;;12.03;5.40;;;;;;;-140.05;100.00;61859.38;5031350;28;20250;-66
2021/08/04 11:06:04;;;;;;;18.47;6.30;;;;;;;-140.05;100.00;61859.38;5031175;28;20212;-68
2021/08/04 11:08:31;;;;;;;14.10;5.17;;;;;;;-140.05;100.00;61859.38;5031362;28;20253;-67
2021/08/04 11:10:58;;;;;;;12.57;5.00;;;;;;;-140.05;100.00;61859.38;5030908;28;20204;-66
2021/08/04 11:13:46;;;;;;;16.37;4.93;;;;;;;-140.05;100.00;61859.38;5031358;28;20208;-67